sensor_id;sensor_type;location;lat;lon;timestamp;P1;durP1;ratioP1;P2;durP2;ratioP2
16979;SDS011;42288;52.182;21.156;2022-11-15T00:01:46;28.13;;;15.57;;
16979;SDS011;42288;52.182;21.156;2022-11-15T00:04:11;27.30;;;16.07;;
16979;SDS011;42288;52.182;21.156;2022-11-15T00:06:37;25.90;;;15.13;;
16979;SDS011;42288;52.182;21.156;2022-11-15T00:09:02;27.10;;;15.20;;
16979;SDS011;42288;52.182;21.156;2022-11-15T00:11:31;29.97;;;16.40;;
16979;SDS011;42288;52.182;21.156;2022-11-15T00:13:57;34.60;;;15.77;;
16979;SDS011;42288;52.182;21.156;2022-11-15T00:16:23;30.00;;;18.03;;
16979;SDS011;42288;52.182;21.156;2022-11-15T00:18:49;34.93;;;18.50;;
16979;SDS011;42288;52.182;21.156;2022-11-15T00:21:15;30.90;;;16.43;;
16979;SDS011;42288;52.182;21.156;2022-11-15T00:23:41;31.03;;;16.93;;
16979;SDS011;42288;52.182;21.156;2022-11-15T00:26:07;33.17;;;18.33;;
16979;SDS011;42288;52.182;21.156;2022-11-15T00:28:37;34.87;;;18.37;;
16979;SDS011;42288;52.182;21.156;2022-11-15T00:31:04;35.10;;;18.53;;
16979;SDS011;42288;52.182;21.156;2022-11-15T00:33:31;33.17;;;18.60;;
16979;SDS011;42288;52.182;21.156;2022-11-15T00:36:03;38.53;;;18.90;;
16979;SDS011;42288;52.182;21.156;2022-11-15T00:38:34;33.67;;;17.90;;
16979;SDS011;42288;52.182;21.156;2022-11-15T00:41:02;35.40;;;19.50;;
16979;SDS011;42288;52.182;21.156;2022-11-15T00:43:29;34.23;;;18.87;;
16979;SDS011;42288;52.182;21.156;2022-11-15T00:45:54;38.70;;;18.40;;
16979;SDS011;42288;52.182;21.156;2022-11-15T00:48:20;37.37;;;19.67;;
16979;SDS011;42288;52.182;21.156;2022-11-15T00:50:46;38.03;;;20.43;;
16979;SDS011;42288;52.182;21.156;2022-11-15T00:53:11;39.87;;;21.57;;
16979;SDS011;42288;52.182;21.156;2022-11-15T00:55:37;37.33;;;19.43;;
16979;SDS011;42288;52.182;21.156;2022-11-15T00:58:02;44.47;;;22.77;;
16979;SDS011;42288;52.182;21.156;2022-11-15T01:00:28;38.20;;;20.63;;
16979;SDS011;42288;52.182;21.156;2022-11-15T01:02:53;40.27;;;20.67;;
16979;SDS011;42288;52.182;21.156;2022-11-15T01:05:19;40.40;;;21.23;;
16979;SDS011;42288;52.182;21.156;2022-11-15T01:07:45;45.93;;;23.80;;
16979;SDS011;42288;52.182;21.156;2022-11-15T01:10:10;44.40;;;21.53;;
16979;SDS011;42288;52.182;21.156;2022-11-15T01:12:36;51.60;;;23.53;;
16979;SDS011;42288;52.182;21.156;2022-11-15T01:15:01;44.33;;;24.17;;
16979;SDS011;42288;52.182;21.156;2022-11-15T01:17:28;44.10;;;23.43;;
16979;SDS011;42288;52.182;21.156;2022-11-15T01:19:54;49.70;;;25.50;;
16979;SDS011;42288;52.182;21.156;2022-11-15T01:22:20;47.47;;;25.73;;
16979;SDS011;42288;52.182;21.156;2022-11-15T01:24:45;50.83;;;26.87;;
16979;SDS011;42288;52.182;21.156;2022-11-15T01:27:11;47.83;;;25.37;;
16979;SDS011;42288;52.182;21.156;2022-11-15T01:29:36;51.00;;;25.60;;
16979;SDS011;42288;52.182;21.156;2022-11-15T01:32:02;41.97;;;22.70;;
16979;SDS011;42288;52.182;21.156;2022-11-15T01:34:27;46.43;;;23.37;;
16979;SDS011;42288;52.182;21.156;2022-11-15T01:36:53;46.63;;;24.00;;
16979;SDS011;42288;52.182;21.156;2022-11-15T01:39:18;51.60;;;25.87;;
16979;SDS011;42288;52.182;21.156;2022-11-15T01:41:44;50.07;;;25.83;;
16979;SDS011;42288;52.182;21.156;2022-11-15T01:44:43;51.73;;;26.37;;
16979;SDS011;42288;52.182;21.156;2022-11-15T01:50:23;49.50;;;26.73;;
16979;SDS011;42288;52.182;21.156;2022-11-15T01:52:52;50.73;;;24.63;;
16979;SDS011;42288;52.182;21.156;2022-11-15T01:55:19;49.10;;;25.60;;
16979;SDS011;42288;52.182;21.156;2022-11-15T01:57:47;50.70;;;24.53;;
16979;SDS011;42288;52.182;21.156;2022-11-15T02:00:16;51.23;;;24.57;;
16979;SDS011;42288;52.182;21.156;2022-11-15T02:02:42;48.07;;;25.53;;
16979;SDS011;42288;52.182;21.156;2022-11-15T02:05:08;49.07;;;24.33;;
16979;SDS011;42288;52.182;21.156;2022-11-15T02:07:34;49.50;;;25.73;;
16979;SDS011;42288;52.182;21.156;2022-11-15T02:10:02;48.40;;;24.17;;
16979;SDS011;42288;52.182;21.156;2022-11-15T02:12:32;41.37;;;21.43;;
16979;SDS011;42288;52.182;21.156;2022-11-15T02:14:58;49.57;;;24.97;;
16979;SDS011;42288;52.182;21.156;2022-11-15T02:17:34;46.93;;;24.83;;
16979;SDS011;42288;52.182;21.156;2022-11-15T02:29:18;49.07;;;23.90;;
16979;SDS011;42288;52.182;21.156;2022-11-15T02:32:13;44.23;;;23.93;;
16979;SDS011;42288;52.182;21.156;2022-11-15T02:37:56;43.83;;;22.47;;
16979;SDS011;42288;52.182;21.156;2022-11-15T02:40:41;40.80;;;21.10;;
16979;SDS011;42288;52.182;21.156;2022-11-15T02:43:40;42.33;;;20.97;;
16979;SDS011;42288;52.182;21.156;2022-11-15T02:46:35;46.93;;;21.87;;
16979;SDS011;42288;52.182;21.156;2022-11-15T02:49:37;45.93;;;22.43;;
16979;SDS011;42288;52.182;21.156;2022-11-15T02:52:04;48.40;;;24.37;;
16979;SDS011;42288;52.182;21.156;2022-11-15T02:54:30;49.90;;;24.17;;
16979;SDS011;42288;52.182;21.156;2022-11-15T02:57:02;49.17;;;22.17;;
16979;SDS011;42288;52.182;21.156;2022-11-15T02:59:42;53.50;;;23.53;;
16979;SDS011;42288;52.182;21.156;2022-11-15T03:02:32;47.43;;;22.93;;
16979;SDS011;42288;52.182;21.156;2022-11-15T03:08:03;48.53;;;22.93;;
16979;SDS011;42288;52.182;21.156;2022-11-15T03:10:42;51.60;;;25.67;;
16979;SDS011;42288;52.182;21.156;2022-11-15T03:13:23;56.27;;;26.40;;
16979;SDS011;42288;52.182;21.156;2022-11-15T03:16:09;53.67;;;23.97;;
16979;SDS011;42288;52.182;21.156;2022-11-15T03:18:43;55.30;;;25.77;;
16979;SDS011;42288;52.182;21.156;2022-11-15T03:21:14;54.07;;;25.73;;
16979;SDS011;42288;52.182;21.156;2022-11-15T03:23:43;58.57;;;27.43;;
16979;SDS011;42288;52.182;21.156;2022-11-15T03:26:12;55.07;;;25.50;;
16979;SDS011;42288;52.182;21.156;2022-11-15T03:28:43;56.60;;;25.27;;
16979;SDS011;42288;52.182;21.156;2022-11-15T03:31:12;56.37;;;27.47;;
16979;SDS011;42288;52.182;21.156;2022-11-15T03:33:58;63.80;;;27.27;;
16979;SDS011;42288;52.182;21.156;2022-11-15T03:36:27;54.93;;;25.80;;
16979;SDS011;42288;52.182;21.156;2022-11-15T03:38:55;57.83;;;26.27;;
16979;SDS011;42288;52.182;21.156;2022-11-15T03:41:28;53.50;;;26.20;;
16979;SDS011;42288;52.182;21.156;2022-11-15T03:46:49;55.73;;;26.10;;
16979;SDS011;42288;52.182;21.156;2022-11-15T03:49:29;63.30;;;27.70;;
16979;SDS011;42288;52.182;21.156;2022-11-15T03:51:59;62.47;;;27.03;;
16979;SDS011;42288;52.182;21.156;2022-11-15T03:54:26;58.67;;;26.70;;
16979;SDS011;42288;52.182;21.156;2022-11-15T03:56:52;56.23;;;26.40;;
16979;SDS011;42288;52.182;21.156;2022-11-15T03:59:17;58.90;;;27.43;;
16979;SDS011;42288;52.182;21.156;2022-11-15T04:01:43;59.10;;;26.37;;
16979;SDS011;42288;52.182;21.156;2022-11-15T04:04:08;55.57;;;24.53;;
16979;SDS011;42288;52.182;21.156;2022-11-15T04:06:34;56.20;;;27.27;;
16979;SDS011;42288;52.182;21.156;2022-11-15T04:08:59;60.90;;;28.07;;
16979;SDS011;42288;52.182;21.156;2022-11-15T04:11:25;57.20;;;28.00;;
16979;SDS011;42288;52.182;21.156;2022-11-15T04:13:50;51.73;;;24.50;;
16979;SDS011;42288;52.182;21.156;2022-11-15T04:16:16;57.83;;;26.03;;
16979;SDS011;42288;52.182;21.156;2022-11-15T04:18:41;52.87;;;24.87;;
16979;SDS011;42288;52.182;21.156;2022-11-15T04:21:07;53.03;;;24.27;;
16979;SDS011;42288;52.182;21.156;2022-11-15T04:23:51;57.97;;;27.07;;
16979;SDS011;42288;52.182;21.156;2022-11-15T04:26:29;50.43;;;24.27;;
16979;SDS011;42288;52.182;21.156;2022-11-15T04:28:54;51.43;;;24.70;;
16979;SDS011;42288;52.182;21.156;2022-11-15T04:31:39;56.33;;;26.33;;
16979;SDS011;42288;52.182;21.156;2022-11-15T04:34:04;62.03;;;24.83;;
16979;SDS011;42288;52.182;21.156;2022-11-15T04:36:30;59.97;;;26.17;;
16979;SDS011;42288;52.182;21.156;2022-11-15T04:39:14;59.90;;;26.93;;
16979;SDS011;42288;52.182;21.156;2022-11-15T04:41:39;53.50;;;26.17;;
16979;SDS011;42288;52.182;21.156;2022-11-15T04:44:04;56.30;;;25.43;;
16979;SDS011;42288;52.182;21.156;2022-11-15T04:46:30;59.27;;;27.20;;
16979;SDS011;42288;52.182;21.156;2022-11-15T04:48:55;52.27;;;25.00;;
16979;SDS011;42288;52.182;21.156;2022-11-15T04:51:21;57.10;;;25.60;;
16979;SDS011;42288;52.182;21.156;2022-11-15T04:53:47;56.67;;;25.00;;
16979;SDS011;42288;52.182;21.156;2022-11-15T04:56:12;62.00;;;27.90;;
16979;SDS011;42288;52.182;21.156;2022-11-15T04:58:38;61.23;;;25.27;;
16979;SDS011;42288;52.182;21.156;2022-11-15T05:01:07;55.47;;;25.33;;
16979;SDS011;42288;52.182;21.156;2022-11-15T05:03:37;53.90;;;25.57;;
16979;SDS011;42288;52.182;21.156;2022-11-15T05:06:21;58.63;;;25.40;;
16979;SDS011;42288;52.182;21.156;2022-11-15T05:08:46;61.27;;;26.10;;
16979;SDS011;42288;52.182;21.156;2022-11-15T05:11:12;58.20;;;25.93;;
16979;SDS011;42288;52.182;21.156;2022-11-15T05:13:37;57.23;;;25.80;;
16979;SDS011;42288;52.182;21.156;2022-11-15T05:16:03;62.67;;;25.40;;
16979;SDS011;42288;52.182;21.156;2022-11-15T05:18:29;63.67;;;27.03;;
16979;SDS011;42288;52.182;21.156;2022-11-15T05:20:54;57.77;;;24.87;;
16979;SDS011;42288;52.182;21.156;2022-11-15T05:23:20;65.17;;;26.53;;
16979;SDS011;42288;52.182;21.156;2022-11-15T05:25:45;63.80;;;27.30;;
16979;SDS011;42288;52.182;21.156;2022-11-15T05:28:12;60.70;;;28.27;;
16979;SDS011;42288;52.182;21.156;2022-11-15T05:30:37;60.87;;;26.40;;
16979;SDS011;42288;52.182;21.156;2022-11-15T05:33:03;62.03;;;28.13;;
16979;SDS011;42288;52.182;21.156;2022-11-15T05:35:42;56.40;;;23.97;;
16979;SDS011;42288;52.182;21.156;2022-11-15T05:38:14;57.50;;;26.13;;
16979;SDS011;42288;52.182;21.156;2022-11-15T05:40:40;48.17;;;22.90;;
16979;SDS011;42288;52.182;21.156;2022-11-15T05:43:05;52.80;;;24.33;;
16979;SDS011;42288;52.182;21.156;2022-11-15T05:45:31;59.10;;;24.43;;
16979;SDS011;42288;52.182;21.156;2022-11-15T05:47:58;56.73;;;25.73;;
16979;SDS011;42288;52.182;21.156;2022-11-15T05:50:29;54.83;;;26.07;;
16979;SDS011;42288;52.182;21.156;2022-11-15T05:52:55;59.97;;;26.53;;
16979;SDS011;42288;52.182;21.156;2022-11-15T05:55:21;53.43;;;24.50;;
16979;SDS011;42288;52.182;21.156;2022-11-15T05:57:46;63.50;;;25.10;;
16979;SDS011;42288;52.182;21.156;2022-11-15T06:00:12;57.67;;;24.80;;
16979;SDS011;42288;52.182;21.156;2022-11-15T06:02:38;58.80;;;27.07;;
16979;SDS011;42288;52.182;21.156;2022-11-15T06:05:03;58.80;;;24.43;;
16979;SDS011;42288;52.182;21.156;2022-11-15T06:07:29;58.33;;;25.03;;
16979;SDS011;42288;52.182;21.156;2022-11-15T06:09:55;56.80;;;24.47;;
16979;SDS011;42288;52.182;21.156;2022-11-15T06:12:20;61.57;;;26.30;;
16979;SDS011;42288;52.182;21.156;2022-11-15T06:14:46;59.57;;;25.60;;
16979;SDS011;42288;52.182;21.156;2022-11-15T06:17:11;53.00;;;24.23;;
16979;SDS011;42288;52.182;21.156;2022-11-15T06:19:36;67.23;;;27.43;;
16979;SDS011;42288;52.182;21.156;2022-11-15T06:22:02;56.50;;;24.53;;
16979;SDS011;42288;52.182;21.156;2022-11-15T06:24:27;61.20;;;26.10;;
16979;SDS011;42288;52.182;21.156;2022-11-15T06:26:53;60.93;;;25.53;;
16979;SDS011;42288;52.182;21.156;2022-11-15T06:29:19;65.00;;;26.97;;
16979;SDS011;42288;52.182;21.156;2022-11-15T06:31:44;61.60;;;25.83;;
16979;SDS011;42288;52.182;21.156;2022-11-15T06:34:10;63.70;;;25.57;;
16979;SDS011;42288;52.182;21.156;2022-11-15T06:36:35;61.43;;;25.27;;
16979;SDS011;42288;52.182;21.156;2022-11-15T06:39:02;61.87;;;25.33;;
16979;SDS011;42288;52.182;21.156;2022-11-15T06:41:28;63.43;;;25.77;;
16979;SDS011;42288;52.182;21.156;2022-11-15T06:43:54;58.33;;;24.13;;
16979;SDS011;42288;52.182;21.156;2022-11-15T06:46:19;59.20;;;25.00;;
16979;SDS011;42288;52.182;21.156;2022-11-15T06:48:45;62.23;;;25.93;;
16979;SDS011;42288;52.182;21.156;2022-11-15T06:51:10;57.80;;;23.20;;
16979;SDS011;42288;52.182;21.156;2022-11-15T06:53:36;65.10;;;25.93;;
16979;SDS011;42288;52.182;21.156;2022-11-15T06:56:02;54.93;;;23.77;;
16979;SDS011;42288;52.182;21.156;2022-11-15T06:58:30;61.90;;;26.50;;
16979;SDS011;42288;52.182;21.156;2022-11-15T07:00:59;53.10;;;22.57;;
16979;SDS011;42288;52.182;21.156;2022-11-15T07:03:26;60.10;;;23.83;;
16979;SDS011;42288;52.182;21.156;2022-11-15T07:05:55;54.67;;;23.43;;
16979;SDS011;42288;52.182;21.156;2022-11-15T07:08:22;57.93;;;24.23;;
16979;SDS011;42288;52.182;21.156;2022-11-15T07:10:48;59.07;;;24.57;;
16979;SDS011;42288;52.182;21.156;2022-11-15T07:13:14;54.03;;;23.53;;
16979;SDS011;42288;52.182;21.156;2022-11-15T07:15:40;54.43;;;23.47;;
16979;SDS011;42288;52.182;21.156;2022-11-15T07:18:05;56.53;;;22.43;;
16979;SDS011;42288;52.182;21.156;2022-11-15T07:20:31;57.53;;;25.60;;
16979;SDS011;42288;52.182;21.156;2022-11-15T07:23:00;56.03;;;24.50;;
16979;SDS011;42288;52.182;21.156;2022-11-15T07:25:27;53.63;;;23.57;;
16979;SDS011;42288;52.182;21.156;2022-11-15T07:27:56;60.27;;;23.60;;
16979;SDS011;42288;52.182;21.156;2022-11-15T07:30:22;57.13;;;23.40;;
16979;SDS011;42288;52.182;21.156;2022-11-15T07:32:55;54.23;;;23.53;;
16979;SDS011;42288;52.182;21.156;2022-11-15T07:35:22;60.10;;;22.63;;
16979;SDS011;42288;52.182;21.156;2022-11-15T07:40:20;50.03;;;21.20;;
16979;SDS011;42288;52.182;21.156;2022-11-15T07:42:46;61.73;;;25.73;;
16979;SDS011;42288;52.182;21.156;2022-11-15T07:45:17;55.83;;;24.07;;
16979;SDS011;42288;52.182;21.156;2022-11-15T07:47:46;57.00;;;22.60;;
16979;SDS011;42288;52.182;21.156;2022-11-15T07:50:13;56.57;;;23.40;;
16979;SDS011;42288;52.182;21.156;2022-11-15T07:52:38;56.67;;;22.50;;
16979;SDS011;42288;52.182;21.156;2022-11-15T07:55:04;53.13;;;22.10;;
16979;SDS011;42288;52.182;21.156;2022-11-15T07:57:30;53.87;;;22.63;;
16979;SDS011;42288;52.182;21.156;2022-11-15T07:59:55;57.87;;;23.70;;
16979;SDS011;42288;52.182;21.156;2022-11-15T08:02:21;50.13;;;21.60;;
16979;SDS011;42288;52.182;21.156;2022-11-15T08:04:46;50.77;;;20.97;;
16979;SDS011;42288;52.182;21.156;2022-11-15T08:07:12;51.37;;;21.63;;
16979;SDS011;42288;52.182;21.156;2022-11-15T08:09:37;53.07;;;22.60;;
16979;SDS011;42288;52.182;21.156;2022-11-15T08:12:03;52.43;;;21.33;;
16979;SDS011;42288;52.182;21.156;2022-11-15T08:14:28;48.83;;;21.77;;
16979;SDS011;42288;52.182;21.156;2022-11-15T08:16:54;49.40;;;20.63;;
16979;SDS011;42288;52.182;21.156;2022-11-15T08:19:20;45.27;;;20.17;;
16979;SDS011;42288;52.182;21.156;2022-11-15T08:21:45;42.03;;;19.67;;
16979;SDS011;42288;52.182;21.156;2022-11-15T08:24:11;46.97;;;20.03;;
16979;SDS011;42288;52.182;21.156;2022-11-15T08:26:37;40.87;;;19.17;;
16979;SDS011;42288;52.182;21.156;2022-11-15T08:29:02;41.80;;;20.23;;
16979;SDS011;42288;52.182;21.156;2022-11-15T08:31:28;48.67;;;22.63;;
16979;SDS011;42288;52.182;21.156;2022-11-15T08:33:54;45.83;;;19.43;;
16979;SDS011;42288;52.182;21.156;2022-11-15T08:36:19;44.13;;;18.60;;
16979;SDS011;42288;52.182;21.156;2022-11-15T08:38:44;40.23;;;18.87;;
16979;SDS011;42288;52.182;21.156;2022-11-15T08:41:12;41.03;;;18.70;;
16979;SDS011;42288;52.182;21.156;2022-11-15T08:43:49;36.87;;;18.13;;
16979;SDS011;42288;52.182;21.156;2022-11-15T08:46:15;45.73;;;19.77;;
16979;SDS011;42288;52.182;21.156;2022-11-15T08:48:40;42.73;;;20.10;;
16979;SDS011;42288;52.182;21.156;2022-11-15T08:51:06;44.37;;;19.60;;
16979;SDS011;42288;52.182;21.156;2022-11-15T08:53:31;42.00;;;19.27;;
16979;SDS011;42288;52.182;21.156;2022-11-15T08:55:57;45.67;;;21.43;;
16979;SDS011;42288;52.182;21.156;2022-11-15T08:58:22;43.30;;;20.33;;
16979;SDS011;42288;52.182;21.156;2022-11-15T09:00:48;37.80;;;17.97;;
16979;SDS011;42288;52.182;21.156;2022-11-15T09:03:13;42.90;;;19.70;;
16979;SDS011;42288;52.182;21.156;2022-11-15T09:05:39;37.13;;;17.87;;
16979;SDS011;42288;52.182;21.156;2022-11-15T09:08:04;36.80;;;19.13;;
16979;SDS011;42288;52.182;21.156;2022-11-15T09:10:30;37.10;;;17.77;;
16979;SDS011;42288;52.182;21.156;2022-11-15T09:12:59;36.10;;;17.17;;
16979;SDS011;42288;52.182;21.156;2022-11-15T09:15:24;31.83;;;16.47;;
16979;SDS011;42288;52.182;21.156;2022-11-15T09:17:50;31.90;;;16.10;;
16979;SDS011;42288;52.182;21.156;2022-11-15T09:20:15;33.63;;;16.83;;
16979;SDS011;42288;52.182;21.156;2022-11-15T09:22:41;32.13;;;15.30;;
16979;SDS011;42288;52.182;21.156;2022-11-15T09:25:06;33.87;;;16.43;;
16979;SDS011;42288;52.182;21.156;2022-11-15T09:27:32;35.97;;;18.03;;
16979;SDS011;42288;52.182;21.156;2022-11-15T09:29:58;33.77;;;16.63;;
16979;SDS011;42288;52.182;21.156;2022-11-15T09:32:23;34.00;;;17.07;;
16979;SDS011;42288;52.182;21.156;2022-11-15T09:34:55;38.73;;;18.40;;
16979;SDS011;42288;52.182;21.156;2022-11-15T09:37:21;41.27;;;19.53;;
16979;SDS011;42288;52.182;21.156;2022-11-15T09:39:47;41.67;;;19.93;;
16979;SDS011;42288;52.182;21.156;2022-11-15T09:44:57;35.40;;;17.93;;
16979;SDS011;42288;52.182;21.156;2022-11-15T09:47:35;40.97;;;20.43;;
16979;SDS011;42288;52.182;21.156;2022-11-15T09:50:11;41.00;;;19.73;;
16979;SDS011;42288;52.182;21.156;2022-11-15T09:52:39;38.60;;;18.97;;
16979;SDS011;42288;52.182;21.156;2022-11-15T09:55:12;40.33;;;22.40;;
16979;SDS011;42288;52.182;21.156;2022-11-15T10:00:42;40.10;;;19.87;;
16979;SDS011;42288;52.182;21.156;2022-11-15T10:03:16;36.03;;;18.03;;
16979;SDS011;42288;52.182;21.156;2022-11-15T10:05:55;38.43;;;18.83;;
16979;SDS011;42288;52.182;21.156;2022-11-15T10:08:30;38.20;;;18.57;;
16979;SDS011;42288;52.182;21.156;2022-11-15T10:11:00;37.10;;;18.53;;
16979;SDS011;42288;52.182;21.156;2022-11-15T10:13:29;34.60;;;17.67;;
16979;SDS011;42288;52.182;21.156;2022-11-15T10:18:58;41.50;;;19.03;;
16979;SDS011;42288;52.182;21.156;2022-11-15T10:24:11;38.50;;;18.67;;
16979;SDS011;42288;52.182;21.156;2022-11-15T10:26:45;39.13;;;19.73;;
16979;SDS011;42288;52.182;21.156;2022-11-15T10:29:17;36.37;;;18.10;;
16979;SDS011;42288;52.182;21.156;2022-11-15T10:31:44;37.10;;;19.23;;
16979;SDS011;42288;52.182;21.156;2022-11-15T10:34:13;38.00;;;18.67;;
16979;SDS011;42288;52.182;21.156;2022-11-15T10:36:57;37.30;;;18.53;;
16979;SDS011;42288;52.182;21.156;2022-11-15T10:39:24;36.20;;;18.67;;
16979;SDS011;42288;52.182;21.156;2022-11-15T10:41:50;36.53;;;18.47;;
16979;SDS011;42288;52.182;21.156;2022-11-15T10:46:42;39.13;;;19.50;;
16979;SDS011;42288;52.182;21.156;2022-11-15T10:49:18;42.17;;;20.80;;
16979;SDS011;42288;52.182;21.156;2022-11-15T10:51:54;38.60;;;19.70;;
16979;SDS011;42288;52.182;21.156;2022-11-15T10:54:29;43.70;;;20.27;;
16979;SDS011;42288;52.182;21.156;2022-11-15T10:57:04;43.40;;;20.23;;
16979;SDS011;42288;52.182;21.156;2022-11-15T10:59:42;45.90;;;20.67;;
16979;SDS011;42288;52.182;21.156;2022-11-15T11:04:56;43.93;;;20.43;;
16979;SDS011;42288;52.182;21.156;2022-11-15T11:07:23;40.47;;;20.17;;
16979;SDS011;42288;52.182;21.156;2022-11-15T11:12:39;40.37;;;20.63;;
16979;SDS011;42288;52.182;21.156;2022-11-15T11:15:09;44.87;;;21.43;;
16979;SDS011;42288;52.182;21.156;2022-11-15T11:20:14;37.03;;;20.27;;
16979;SDS011;42288;52.182;21.156;2022-11-15T11:22:57;40.17;;;20.23;;
16979;SDS011;42288;52.182;21.156;2022-11-15T11:28:14;45.67;;;21.23;;
16979;SDS011;42288;52.182;21.156;2022-11-15T11:47:39;40.13;;;20.20;;
16979;SDS011;42288;52.182;21.156;2022-11-15T11:50:24;42.13;;;20.07;;
16979;SDS011;42288;52.182;21.156;2022-11-15T11:55:43;43.73;;;20.57;;
16979;SDS011;42288;52.182;21.156;2022-11-15T11:58:19;37.70;;;19.03;;
16979;SDS011;42288;52.182;21.156;2022-11-15T12:03:30;37.23;;;19.97;;
16979;SDS011;42288;52.182;21.156;2022-11-15T12:06:17;46.43;;;22.67;;
16979;SDS011;42288;52.182;21.156;2022-11-15T12:11:29;43.07;;;21.30;;
16979;SDS011;42288;52.182;21.156;2022-11-15T12:14:03;39.23;;;20.27;;
16979;SDS011;42288;52.182;21.156;2022-11-15T12:16:33;42.10;;;22.03;;
16979;SDS011;42288;52.182;21.156;2022-11-15T12:19:00;41.37;;;20.13;;
16979;SDS011;42288;52.182;21.156;2022-11-15T12:21:33;42.57;;;20.77;;
16979;SDS011;42288;52.182;21.156;2022-11-15T12:24:06;38.43;;;19.93;;
16979;SDS011;42288;52.182;21.156;2022-11-15T12:26:41;43.57;;;20.20;;
16979;SDS011;42288;52.182;21.156;2022-11-15T12:29:26;38.83;;;19.70;;
16979;SDS011;42288;52.182;21.156;2022-11-15T12:31:56;41.50;;;20.43;;
16979;SDS011;42288;52.182;21.156;2022-11-15T12:36:53;54.97;;;27.07;;
16979;SDS011;42288;52.182;21.156;2022-11-15T12:39:19;45.13;;;21.43;;
16979;SDS011;42288;52.182;21.156;2022-11-15T12:47:02;43.23;;;21.83;;
16979;SDS011;42288;52.182;21.156;2022-11-15T12:49:47;39.97;;;20.47;;
16979;SDS011;42288;52.182;21.156;2022-11-15T12:52:13;46.60;;;21.43;;
16979;SDS011;42288;52.182;21.156;2022-11-15T13:05:20;43.20;;;21.73;;
16979;SDS011;42288;52.182;21.156;2022-11-15T13:10:51;47.97;;;22.83;;
16979;SDS011;42288;52.182;21.156;2022-11-15T13:12:59;50.37;;;23.03;;
16979;SDS011;42288;52.182;21.156;2022-11-15T13:15:37;47.13;;;23.00;;
16979;SDS011;42288;52.182;21.156;2022-11-15T13:20:53;51.77;;;24.87;;
16979;SDS011;42288;52.182;21.156;2022-11-15T13:23:20;46.47;;;23.67;;
16979;SDS011;42288;52.182;21.156;2022-11-15T13:28:29;49.53;;;23.87;;
16979;SDS011;42288;52.182;21.156;2022-11-15T13:31:03;51.90;;;;;
16979;SDS011;42288;52.182;21.156;2022-11-15T13:33:44;51.23;;;26.63;;
16979;SDS011;42288;52.182;21.156;2022-11-15T13:36:14;54.97;;;23.70;;
16979;SDS011;42288;52.182;21.156;2022-11-15T13:38:44;50.40;;;24.57;;
16979;SDS011;42288;52.182;21.156;2022-11-15T13:41:44;51.07;;;23.63;;
16979;SDS011;42288;52.182;21.156;2022-11-15T13:44:26;51.83;;;25.70;;
16979;SDS011;42288;52.182;21.156;2022-11-15T13:47:03;55.33;;;27.33;;
16979;SDS011;42288;52.182;21.156;2022-11-15T13:49:39;50.10;;;23.37;;
16979;SDS011;42288;52.182;21.156;2022-11-15T13:52:06;51.60;;;26.43;;
16979;SDS011;42288;52.182;21.156;2022-11-15T14:02:47;47.70;;;24.10;;
16979;SDS011;42288;52.182;21.156;2022-11-15T14:05:20;48.97;;;23.07;;
16979;SDS011;42288;52.182;21.156;2022-11-15T14:07:55;51.67;;;25.50;;
16979;SDS011;42288;52.182;21.156;2022-11-15T14:10:54;48.17;;;23.77;;
16979;SDS011;42288;52.182;21.156;2022-11-15T14:13:29;47.57;;;23.43;;
16979;SDS011;42288;52.182;21.156;2022-11-15T14:18:46;48.00;;;22.97;;
16979;SDS011;42288;52.182;21.156;2022-11-15T14:21:14;52.37;;;26.33;;
16979;SDS011;42288;52.182;21.156;2022-11-15T14:23:40;52.60;;;24.90;;
16979;SDS011;42288;52.182;21.156;2022-11-15T14:26:05;46.80;;;24.30;;
16979;SDS011;42288;52.182;21.156;2022-11-15T14:28:36;56.20;;;28.70;;
16979;SDS011;42288;52.182;21.156;2022-11-15T14:31:07;59.00;;;28.77;;
16979;SDS011;42288;52.182;21.156;2022-11-15T14:33:37;59.13;;;27.07;;
16979;SDS011;42288;52.182;21.156;2022-11-15T14:36:05;58.17;;;27.00;;
16979;SDS011;42288;52.182;21.156;2022-11-15T14:38:31;57.83;;;26.63;;
16979;SDS011;42288;52.182;21.156;2022-11-15T14:40:56;52.00;;;26.60;;
16979;SDS011;42288;52.182;21.156;2022-11-15T14:43:23;56.43;;;27.17;;
16979;SDS011;42288;52.182;21.156;2022-11-15T14:45:48;56.93;;;25.47;;
16979;SDS011;42288;52.182;21.156;2022-11-15T14:48:14;53.33;;;25.17;;
16979;SDS011;42288;52.182;21.156;2022-11-15T14:50:40;53.20;;;27.10;;
16979;SDS011;42288;52.182;21.156;2022-11-15T14:53:05;55.97;;;26.53;;
16979;SDS011;42288;52.182;21.156;2022-11-15T14:55:32;53.73;;;26.80;;
16979;SDS011;42288;52.182;21.156;2022-11-15T14:58:04;52.13;;;25.47;;
16979;SDS011;42288;52.182;21.156;2022-11-15T15:00:33;50.13;;;25.40;;
16979;SDS011;42288;52.182;21.156;2022-11-15T15:02:59;52.73;;;25.17;;
16979;SDS011;42288;52.182;21.156;2022-11-15T15:05:29;56.90;;;25.63;;
16979;SDS011;42288;52.182;21.156;2022-11-15T15:07:57;56.33;;;28.10;;
16979;SDS011;42288;52.182;21.156;2022-11-15T15:10:23;57.50;;;26.40;;
16979;SDS011;42288;52.182;21.156;2022-11-15T15:12:50;54.60;;;26.53;;
16979;SDS011;42288;52.182;21.156;2022-11-15T15:15:16;54.93;;;26.53;;
16979;SDS011;42288;52.182;21.156;2022-11-15T15:17:46;54.70;;;25.43;;
16979;SDS011;42288;52.182;21.156;2022-11-15T15:20:12;58.50;;;26.07;;
16979;SDS011;42288;52.182;21.156;2022-11-15T15:22:37;56.90;;;27.80;;
16979;SDS011;42288;52.182;21.156;2022-11-15T15:25:08;57.47;;;28.63;;
16979;SDS011;42288;52.182;21.156;2022-11-15T15:27:53;54.40;;;25.57;;
16979;SDS011;42288;52.182;21.156;2022-11-15T15:30:20;58.27;;;27.00;;
16979;SDS011;42288;52.182;21.156;2022-11-15T15:32:46;54.57;;;25.77;;
16979;SDS011;42288;52.182;21.156;2022-11-15T15:35:12;56.97;;;28.23;;
16979;SDS011;42288;52.182;21.156;2022-11-15T15:37:38;63.20;;;28.50;;
16979;SDS011;42288;52.182;21.156;2022-11-15T15:40:10;65.53;;;28.43;;
16979;SDS011;42288;52.182;21.156;2022-11-15T15:42:38;58.90;;;28.47;;
16979;SDS011;42288;52.182;21.156;2022-11-15T15:45:03;65.73;;;28.70;;
16979;SDS011;42288;52.182;21.156;2022-11-15T15:47:29;65.77;;;29.17;;
16979;SDS011;42288;52.182;21.156;2022-11-15T15:49:55;69.73;;;30.37;;
16979;SDS011;42288;52.182;21.156;2022-11-15T15:52:20;66.37;;;29.03;;
16979;SDS011;42288;52.182;21.156;2022-11-15T15:54:46;64.63;;;28.60;;
16979;SDS011;42288;52.182;21.156;2022-11-15T15:57:12;65.53;;;29.57;;
16979;SDS011;42288;52.182;21.156;2022-11-15T15:59:38;69.27;;;29.43;;
16979;SDS011;42288;52.182;21.156;2022-11-15T16:02:04;60.43;;;27.13;;
16979;SDS011;42288;52.182;21.156;2022-11-15T16:04:30;68.27;;;29.03;;
16979;SDS011;42288;52.182;21.156;2022-11-15T16:06:59;61.97;;;27.27;;
16979;SDS011;42288;52.182;21.156;2022-11-15T16:09:25;57.17;;;26.17;;
16979;SDS011;42288;52.182;21.156;2022-11-15T16:12:10;66.00;;;28.83;;